Deatsville, Alabama
Current Conditions -  °F | °C
As of 6:15 PM on Thursday 27 Nov 2014 (Local Time) from K1A9 Reporting Station
Clear Clear  
Wind Chill:   Ceiling: Unl
Heat Index:   Visibility: 10mi
Dew Point: -1°   Wind: 5mph
Humidity: 63%   Direction: 320°NW
Pressure: 30.41"   Gusts: NA
Location:  32.61°N, 86.4°W
Report Text: K1A9 280015Z AUTO 32004KT 10SM CLR 06/M01 A3041 RMK AO2 T00561010
Loading
Personal Weather Stations






























Interactive Weather Map New forecast layout! Learn more

10-Day Weather Forecast

Advertisements
Track Severe Weather on mobile